createdAt,value
2022-12-05T00:02:06.367Z,85.87605
2022-12-05T00:12:08.153Z,87.25709
2022-12-05T00:22:09.591Z,87.01036
2022-12-05T00:32:11.136Z,87.04725
2022-12-05T00:42:12.524Z,85.97607
2022-12-05T00:52:13.710Z,87.6528
2022-12-05T01:02:14.827Z,88.08931
2022-12-05T01:12:15.918Z,89.11126
2022-12-05T01:22:17.046Z,88.64028
2022-12-05T01:32:18.180Z,89.73521
2022-12-05T01:42:23.209Z,89.10438
2022-12-05T01:52:27.273Z,89.06913
2022-12-05T02:02:28.460Z,88.09784
2022-12-05T02:12:29.634Z,87.35089
2022-12-05T02:22:30.972Z,87.22583
2022-12-05T02:32:32.147Z,84.31035
2022-12-05T02:42:33.285Z,83.7203
2022-12-05T02:52:34.444Z,85.45443
2022-12-05T03:02:35.555Z,87.08666
2022-12-05T03:12:36.749Z,85.66818
2022-12-05T03:22:37.940Z,85.49234
2022-12-05T03:32:39.107Z,86.49619
2022-12-05T03:42:40.300Z,84.51644
2022-12-05T03:52:57.197Z,85.79523
2022-12-05T04:03:19.244Z,84.07635
2022-12-05T04:13:20.552Z,86.38366
2022-12-05T04:23:21.681Z,86.91397
2022-12-05T04:33:22.806Z,89.11436
2022-12-05T04:43:23.938Z,89.73396
2022-12-05T04:53:25.045Z,88.38016
2022-12-05T05:03:26.154Z,87.84304
2022-12-05T05:13:27.317Z,87.35096
2022-12-05T05:23:28.515Z,89.07191
2022-12-05T05:33:29.657Z,89.70786
2022-12-05T05:43:31.011Z,90.8012
2022-12-05T05:53:32.178Z,90.13789
2022-12-05T06:03:33.560Z,90.89295
2022-12-05T06:13:34.883Z,89.34986
2022-12-05T06:23:35.999Z,87.87794
2022-12-05T06:33:37.106Z,89.13306
2022-12-05T06:43:38.423Z,92.83374
2022-12-05T06:53:39.574Z,93.29119
2022-12-05T07:03:40.902Z,93.42464
2022-12-05T07:13:42.028Z,92.37158
2022-12-05T07:23:43.164Z,89.59563
2022-12-05T07:33:44.318Z,87.9758
2022-12-05T07:43:45.453Z,87.90672
2022-12-05T07:53:46.922Z,88.36576
2022-12-05T08:03:48.027Z,87.05564
2022-12-05T08:13:49.742Z,85.24536
2022-12-05T08:23:51.165Z,85.07221
2022-12-05T08:33:57.346Z,84.95414
2022-12-05T08:43:59.886Z,85.97813
2022-12-05T08:54:01.219Z,85.84027
2022-12-05T09:04:02.813Z,86.69129
2022-12-05T09:14:04.678Z,86.74643
2022-12-05T09:24:06.371Z,86.32014
2022-12-05T09:34:09.461Z,85.62311
2022-12-05T09:44:11.330Z,78.35011
2022-12-05T09:54:12.555Z,86.19887
2022-12-05T10:04:14.074Z,86.82859
2022-12-05T10:14:15.442Z,84.54183
2022-12-05T10:24:16.646Z,86.13932
2022-12-05T10:34:17.817Z,87.45457
2022-12-05T10:44:19.643Z,87.63599
2022-12-05T10:54:25.878Z,88.16064
2022-12-05T11:04:28.046Z,87.5669
2022-12-05T11:14:29.236Z,88.38613
2022-12-05T11:24:30.554Z,86.29438
2022-12-05T11:34:31.659Z,84.64231
2022-12-05T11:44:32.804Z,83.58449
2022-12-05T11:55:03.906Z,85.063
2022-12-05T12:05:11.267Z,85.51194
2022-12-05T12:15:12.439Z,88.55608
2022-12-05T12:25:13.625Z,89.81525
2022-12-05T12:35:14.780Z,90.03146
2022-12-05T12:45:15.904Z,87.98054
2022-12-05T12:55:17.306Z,88.99714
2022-12-05T13:05:18.593Z,90.69514
2022-12-05T13:15:19.970Z,90.20193
2022-12-05T13:25:21.362Z,88.48993
2022-12-05T13:35:22.529Z,86.39867
2022-12-05T13:45:23.756Z,84.9982
2022-12-05T13:55:24.912Z,83.92731
2022-12-05T14:05:31.339Z,83.11467
2022-12-05T14:15:32.617Z,82.12239
2022-12-05T14:25:33.801Z,82.71673
2022-12-05T14:35:34.997Z,82.44817
2022-12-05T14:45:36.212Z,81.44961
2022-12-05T14:55:37.411Z,81.3658
2022-12-05T15:05:38.950Z,81.36768
2022-12-05T15:15:40.531Z,82.8891
2022-12-05T15:25:41.734Z,81.46209
2022-12-05T15:35:42.820Z,81.06766
2022-12-05T15:45:44.316Z,80.03839
2022-12-05T15:55:45.503Z,80.43084
2022-12-05T16:05:46.628Z,81.05798
2022-12-05T16:15:52.241Z,81.802
2022-12-05T16:25:53.841Z,86.3719
2022-12-05T16:35:54.968Z,84.93077
2022-12-05T16:45:56.106Z,87.00251
2022-12-05T16:55:57.219Z,85.14325
2022-12-05T17:06:03.772Z,87.63492
2022-12-05T17:16:05.552Z,90.48475
2022-12-05T17:26:07.330Z,90.80159
2022-12-05T17:36:08.938Z,89.05086
2022-12-05T17:46:10.477Z,90.70948
2022-12-05T17:56:11.953Z,91.62657
2022-12-05T18:06:13.292Z,91.91336
2022-12-05T18:16:14.452Z,93.41716
2022-12-05T18:26:15.758Z,95.88121
2022-12-05T18:36:16.964Z,96.06265
2022-12-05T18:46:18.182Z,95.39528
2022-12-05T18:56:22.762Z,95.95319
2022-12-05T19:06:24.914Z,93.81957
2022-12-05T19:16:26.122Z,90.41144
2022-12-05T19:26:27.327Z,90.37337
2022-12-05T19:36:28.409Z,91.58455
2022-12-05T19:46:29.789Z,89.75036
2022-12-05T19:56:37.196Z,87.84712
2022-12-05T20:06:38.348Z,87.55095
2022-12-05T20:16:39.504Z,86.72233
2022-12-05T20:26:40.965Z,85.93422
2022-12-05T20:36:42.340Z,83.66385
2022-12-05T20:46:43.527Z,84.92267
2022-12-05T20:56:44.719Z,82.97868
2022-12-05T21:06:45.935Z,82.69511
2022-12-05T21:16:47.202Z,82.66384
2022-12-05T21:26:48.415Z,81.29786
2022-12-05T21:36:49.530Z,80.06091
2022-12-05T21:46:50.987Z,79.4782
2022-12-05T21:56:52.243Z,78.72207
2022-12-05T22:06:53.356Z,79.51609
2022-12-05T22:16:54.581Z,78.39986
2022-12-05T22:26:55.737Z,77.71868
2022-12-05T22:36:56.945Z,76.40523
2022-12-05T22:46:58.289Z,76.34996
2022-12-05T22:56:59.476Z,77.14563
2022-12-05T23:07:00.861Z,74.89408
2022-12-05T23:17:02.575Z,76.25281
2022-12-05T23:27:04.260Z,79.82039
2022-12-05T23:37:05.966Z,76.91669
2022-12-05T23:47:07.705Z,77.78331
2022-12-05T23:57:13.332Z,77.73503
